sensor_id;sensor_type;location;lat;lon;timestamp;P1;durP1;ratioP1;P2;durP2;ratioP2
17032;SDS011;63208;52.178;21.016;2022-11-24T02:29:44;18.40;;;7.27;;
17032;SDS011;63208;52.178;21.016;2022-11-24T02:32:21;16.33;;;6.70;;
17032;SDS011;63208;52.178;21.016;2022-11-24T02:38:17;18.33;;;7.43;;
17032;SDS011;63208;52.178;21.016;2022-11-24T02:40:45;17.83;;;7.67;;
17032;SDS011;63208;52.178;21.016;2022-11-24T02:47:13;17.13;;;6.70;;
17032;SDS011;63208;52.178;21.016;2022-11-24T02:49:40;16.33;;;6.73;;
17032;SDS011;63208;52.178;21.016;2022-11-24T02:52:08;16.10;;;6.90;;
17032;SDS011;63208;52.178;21.016;2022-11-24T03:00:48;13.30;;;6.33;;
17032;SDS011;63208;52.178;21.016;2022-11-24T03:03:20;12.73;;;6.17;;
17032;SDS011;63208;52.178;21.016;2022-11-24T03:09:09;15.90;;;5.80;;
17032;SDS011;63208;52.178;21.016;2022-11-24T03:11:37;11.67;;;5.63;;
17032;SDS011;63208;52.178;21.016;2022-11-24T03:14:18;12.43;;;5.30;;
17032;SDS011;63208;52.178;21.016;2022-11-24T03:16:46;11.53;;;5.37;;
17032;SDS011;63208;52.178;21.016;2022-11-24T03:19:16;15.27;;;6.13;;
17032;SDS011;63208;52.178;21.016;2022-11-24T03:21:43;14.07;;;5.87;;
17032;SDS011;63208;52.178;21.016;2022-11-24T03:24:10;13.90;;;6.13;;
17032;SDS011;63208;52.178;21.016;2022-11-24T03:26:38;13.03;;;5.80;;
17032;SDS011;63208;52.178;21.016;2022-11-24T03:32:28;11.40;;;5.10;;
17032;SDS011;63208;52.178;21.016;2022-11-24T03:41:27;12.07;;;5.67;;
17032;SDS011;63208;52.178;21.016;2022-11-24T03:47:02;13.03;;;5.53;;
17032;SDS011;63208;52.178;21.016;2022-11-24T04:02:41;10.10;;;4.67;;
17032;SDS011;63208;52.178;21.016;2022-11-24T04:05:17;12.07;;;4.93;;
17032;SDS011;63208;52.178;21.016;2022-11-24T04:08:00;12.00;;;6.10;;
17032;SDS011;63208;52.178;21.016;2022-11-24T04:13:51;17.17;;;6.20;;
17032;SDS011;63208;52.178;21.016;2022-11-24T04:16:21;14.03;;;5.53;;
17032;SDS011;63208;52.178;21.016;2022-11-24T04:22:01;13.70;;;5.30;;
17032;SDS011;63208;52.178;21.016;2022-11-24T04:24:29;11.00;;;5.20;;
17032;SDS011;63208;52.178;21.016;2022-11-24T04:30:18;13.27;;;5.33;;
17032;SDS011;63208;52.178;21.016;2022-11-24T04:36:22;10.47;;;5.37;;
17032;SDS011;63208;52.178;21.016;2022-11-24T04:38:52;13.07;;;4.87;;
17032;SDS011;63208;52.178;21.016;2022-11-24T04:41:20;12.03;;;6.00;;
17032;SDS011;63208;52.178;21.016;2022-11-24T04:43:47;13.50;;;6.17;;
17032;SDS011;63208;52.178;21.016;2022-11-24T04:49:46;12.43;;;5.37;;
17032;SDS011;63208;52.178;21.016;2022-11-24T05:01:26;11.30;;;5.70;;
17032;SDS011;63208;52.178;21.016;2022-11-24T05:03:54;12.77;;;5.73;;
17032;SDS011;63208;52.178;21.016;2022-11-24T05:06:34;12.17;;;4.87;;
17032;SDS011;63208;52.178;21.016;2022-11-24T05:09:05;13.23;;;5.63;;
17032;SDS011;63208;52.178;21.016;2022-11-24T05:11:35;9.77;;;5.10;;
17032;SDS011;63208;52.178;21.016;2022-11-24T05:14:01;9.70;;;5.23;;
17032;SDS011;63208;52.178;21.016;2022-11-24T05:16:29;10.93;;;4.83;;
17032;SDS011;63208;52.178;21.016;2022-11-24T05:18:56;12.00;;;4.87;;
17032;SDS011;63208;52.178;21.016;2022-11-24T05:21:26;14.47;;;5.70;;
17032;SDS011;63208;52.178;21.016;2022-11-24T05:24:02;14.87;;;6.00;;
17032;SDS011;63208;52.178;21.016;2022-11-24T05:26:30;15.60;;;5.90;;
17032;SDS011;63208;52.178;21.016;2022-11-24T05:29:01;14.40;;;6.10;;
17032;SDS011;63208;52.178;21.016;2022-11-24T05:31:49;15.97;;;5.63;;
17032;SDS011;63208;52.178;21.016;2022-11-24T05:37:26;11.00;;;5.30;;
17032;SDS011;63208;52.178;21.016;2022-11-24T05:39:53;16.70;;;6.40;;
17032;SDS011;63208;52.178;21.016;2022-11-24T05:45:44;14.33;;;5.43;;
17032;SDS011;63208;52.178;21.016;2022-11-24T05:51:31;11.87;;;5.23;;
17032;SDS011;63208;52.178;21.016;2022-11-24T05:53:59;12.47;;;5.17;;
17032;SDS011;63208;52.178;21.016;2022-11-24T05:56:26;13.13;;;5.67;;
17032;SDS011;63208;52.178;21.016;2022-11-24T05:58:54;11.33;;;5.50;;
17032;SDS011;63208;52.178;21.016;2022-11-24T06:01:23;12.73;;;5.60;;
17032;SDS011;63208;52.178;21.016;2022-11-24T06:03:56;11.60;;;5.33;;
17032;SDS011;63208;52.178;21.016;2022-11-24T06:06:32;11.53;;;5.40;;
17032;SDS011;63208;52.178;21.016;2022-11-24T06:08:59;15.20;;;5.93;;
17032;SDS011;63208;52.178;21.016;2022-11-24T06:11:27;14.30;;;5.30;;
17032;SDS011;63208;52.178;21.016;2022-11-24T06:13:54;15.43;;;5.97;;
17032;SDS011;63208;52.178;21.016;2022-11-24T06:16:23;18.23;;;8.63;;
17032;SDS011;63208;52.178;21.016;2022-11-24T06:22:12;10.30;;;5.10;;
17032;SDS011;63208;52.178;21.016;2022-11-24T06:24:49;12.07;;;5.60;;
17032;SDS011;63208;52.178;21.016;2022-11-24T06:27:16;11.27;;;4.60;;
17032;SDS011;63208;52.178;21.016;2022-11-24T06:29:53;11.73;;;5.17;;
17032;SDS011;63208;52.178;21.016;2022-11-24T06:42:27;11.93;;;4.87;;
17032;SDS011;63208;52.178;21.016;2022-11-24T06:44:54;10.87;;;5.13;;
17032;SDS011;63208;52.178;21.016;2022-11-24T06:57:28;15.30;;;5.83;;
17032;SDS011;63208;52.178;21.016;2022-11-24T06:59:55;11.50;;;5.57;;
17032;SDS011;63208;52.178;21.016;2022-11-24T07:02:22;11.80;;;5.53;;
17032;SDS011;63208;52.178;21.016;2022-11-24T07:05:05;12.90;;;5.97;;
17032;SDS011;63208;52.178;21.016;2022-11-24T07:11:15;11.87;;;5.80;;
17032;SDS011;63208;52.178;21.016;2022-11-24T07:13:45;11.67;;;5.20;;
17032;SDS011;63208;52.178;21.016;2022-11-24T07:19:40;10.20;;;5.30;;
17032;SDS011;63208;52.178;21.016;2022-11-24T07:22:07;16.00;;;6.43;;
17032;SDS011;63208;52.178;21.016;2022-11-24T07:24:35;13.43;;;5.97;;
17032;SDS011;63208;52.178;21.016;2022-11-24T07:30:26;14.20;;;6.63;;
17032;SDS011;63208;52.178;21.016;2022-11-24T07:33:03;15.67;;;6.53;;
17032;SDS011;63208;52.178;21.016;2022-11-24T07:35:44;17.37;;;6.97;;
17032;SDS011;63208;52.178;21.016;2022-11-24T07:38:28;15.63;;;6.47;;
17032;SDS011;63208;52.178;21.016;2022-11-24T07:40:58;16.37;;;6.40;;
17032;SDS011;63208;52.178;21.016;2022-11-24T07:43:27;19.40;;;8.60;;
17032;SDS011;63208;52.178;21.016;2022-11-24T07:45:55;24.10;;;11.37;;
17032;SDS011;63208;52.178;21.016;2022-11-24T07:48:23;14.27;;;6.90;;
17032;SDS011;63208;52.178;21.016;2022-11-24T07:50:50;16.43;;;7.70;;
17032;SDS011;63208;52.178;21.016;2022-11-24T07:53:18;17.87;;;8.03;;
17032;SDS011;63208;52.178;21.016;2022-11-24T07:55:52;17.60;;;7.50;;
17032;SDS011;63208;52.178;21.016;2022-11-24T07:58:20;16.40;;;7.67;;
17032;SDS011;63208;52.178;21.016;2022-11-24T08:00:47;18.50;;;6.93;;
17032;SDS011;63208;52.178;21.016;2022-11-24T08:03:16;18.20;;;7.60;;
17032;SDS011;63208;52.178;21.016;2022-11-24T08:05:52;17.47;;;6.83;;
17032;SDS011;63208;52.178;21.016;2022-11-24T08:08:20;15.53;;;6.87;;
17032;SDS011;63208;52.178;21.016;2022-11-24T08:10:47;19.17;;;8.10;;
17032;SDS011;63208;52.178;21.016;2022-11-24T08:13:14;15.70;;;7.17;;
17032;SDS011;63208;52.178;21.016;2022-11-24T08:15:42;15.27;;;7.20;;
17032;SDS011;63208;52.178;21.016;2022-11-24T08:18:09;15.40;;;7.43;;
17032;SDS011;63208;52.178;21.016;2022-11-24T08:20:38;17.37;;;7.47;;
17032;SDS011;63208;52.178;21.016;2022-11-24T08:23:05;17.20;;;7.17;;
17032;SDS011;63208;52.178;21.016;2022-11-24T08:25:33;15.43;;;7.03;;
17032;SDS011;63208;52.178;21.016;2022-11-24T08:28:07;14.63;;;6.60;;
17032;SDS011;63208;52.178;21.016;2022-11-24T08:30:40;13.97;;;6.97;;
17032;SDS011;63208;52.178;21.016;2022-11-24T08:33:08;17.07;;;6.93;;
17032;SDS011;63208;52.178;21.016;2022-11-24T08:35:35;10.37;;;6.07;;
17032;SDS011;63208;52.178;21.016;2022-11-24T08:38:04;12.53;;;6.23;;
17032;SDS011;63208;52.178;21.016;2022-11-24T08:40:31;17.13;;;7.73;;
17032;SDS011;63208;52.178;21.016;2022-11-24T08:42:59;15.80;;;6.43;;
17032;SDS011;63208;52.178;21.016;2022-11-24T08:45:26;15.53;;;6.70;;
17032;SDS011;63208;52.178;21.016;2022-11-24T08:47:54;16.23;;;6.73;;
17032;SDS011;63208;52.178;21.016;2022-11-24T08:50:23;11.33;;;6.23;;
17032;SDS011;63208;52.178;21.016;2022-11-24T08:52:52;14.43;;;6.23;;
17032;SDS011;63208;52.178;21.016;2022-11-24T08:55:22;12.40;;;5.73;;
17032;SDS011;63208;52.178;21.016;2022-11-24T08:57:49;20.00;;;6.73;;
17032;SDS011;63208;52.178;21.016;2022-11-24T09:00:17;13.43;;;6.87;;
17032;SDS011;63208;52.178;21.016;2022-11-24T09:03:05;15.50;;;6.67;;
17032;SDS011;63208;52.178;21.016;2022-11-24T09:05:44;12.93;;;6.23;;
17032;SDS011;63208;52.178;21.016;2022-11-24T09:32:30;17.33;;;7.20;;
17032;SDS011;63208;52.178;21.016;2022-11-24T09:34:57;13.43;;;6.90;;
17032;SDS011;63208;52.178;21.016;2022-11-24T09:37:27;14.70;;;6.37;;
17032;SDS011;63208;52.178;21.016;2022-11-24T09:40:01;11.40;;;6.30;;
17032;SDS011;63208;52.178;21.016;2022-11-24T09:42:30;16.03;;;6.47;;
17032;SDS011;63208;52.178;21.016;2022-11-24T09:45:08;13.00;;;6.20;;
17032;SDS011;63208;52.178;21.016;2022-11-24T09:47:45;14.57;;;7.40;;
17032;SDS011;63208;52.178;21.016;2022-11-24T09:50:20;17.87;;;7.10;;
17032;SDS011;63208;52.178;21.016;2022-11-24T09:52:50;11.93;;;7.10;;
17032;SDS011;63208;52.178;21.016;2022-11-24T09:55:27;15.37;;;6.73;;
17032;SDS011;63208;52.178;21.016;2022-11-24T09:58:05;17.40;;;6.53;;
17032;SDS011;63208;52.178;21.016;2022-11-24T10:00:38;14.77;;;7.10;;
17032;SDS011;63208;52.178;21.016;2022-11-24T10:03:10;17.10;;;6.37;;
17032;SDS011;63208;52.178;21.016;2022-11-24T10:19:16;17.53;;;7.53;;
17032;SDS011;63208;52.178;21.016;2022-11-24T10:21:56;14.17;;;6.53;;
17032;SDS011;63208;52.178;21.016;2022-11-24T10:24:54;16.97;;;7.40;;
17032;SDS011;63208;52.178;21.016;2022-11-24T10:27:29;15.40;;;7.23;;
17032;SDS011;63208;52.178;21.016;2022-11-24T10:30:02;13.40;;;7.30;;
17032;SDS011;63208;52.178;21.016;2022-11-24T10:32:44;19.10;;;8.97;;
17032;SDS011;63208;52.178;21.016;2022-11-24T10:35:16;13.03;;;7.03;;
17032;SDS011;63208;52.178;21.016;2022-11-24T10:40:42;15.80;;;7.03;;
17032;SDS011;63208;52.178;21.016;2022-11-24T10:43:14;15.90;;;7.30;;
17032;SDS011;63208;52.178;21.016;2022-11-24T10:45:41;15.00;;;7.03;;
17032;SDS011;63208;52.178;21.016;2022-11-24T10:51:31;16.13;;;7.60;;
17032;SDS011;63208;52.178;21.016;2022-11-24T10:54:06;15.80;;;7.70;;
17032;SDS011;63208;52.178;21.016;2022-11-24T10:56:54;16.00;;;7.93;;
17032;SDS011;63208;52.178;21.016;2022-11-24T10:59:34;20.77;;;8.67;;
17032;SDS011;63208;52.178;21.016;2022-11-24T11:02:02;16.37;;;7.30;;
17032;SDS011;63208;52.178;21.016;2022-11-24T11:04:54;18.30;;;7.80;;
17032;SDS011;63208;52.178;21.016;2022-11-24T11:07:23;17.57;;;8.30;;
17032;SDS011;63208;52.178;21.016;2022-11-24T11:10:09;20.87;;;7.90;;
17032;SDS011;63208;52.178;21.016;2022-11-24T11:12:44;17.97;;;8.13;;
17032;SDS011;63208;52.178;21.016;2022-11-24T11:15:19;19.13;;;8.20;;
17032;SDS011;63208;52.178;21.016;2022-11-24T11:17:48;17.93;;;8.50;;
17032;SDS011;63208;52.178;21.016;2022-11-24T11:20:20;16.53;;;7.73;;
17032;SDS011;63208;52.178;21.016;2022-11-24T11:22:53;14.67;;;7.93;;
17032;SDS011;63208;52.178;21.016;2022-11-24T11:25:29;17.23;;;8.00;;
17032;SDS011;63208;52.178;21.016;2022-11-24T11:30:55;18.40;;;8.23;;
17032;SDS011;63208;52.178;21.016;2022-11-24T11:33:26;17.77;;;8.33;;
17032;SDS011;63208;52.178;21.016;2022-11-24T11:35:55;17.70;;;8.03;;
17032;SDS011;63208;52.178;21.016;2022-11-24T11:38:27;17.10;;;8.37;;
17032;SDS011;63208;52.178;21.016;2022-11-24T11:41:16;17.43;;;7.40;;
17032;SDS011;63208;52.178;21.016;2022-11-24T11:43:48;17.10;;;7.33;;
17032;SDS011;63208;52.178;21.016;2022-11-24T11:46:24;17.63;;;7.10;;
17032;SDS011;63208;52.178;21.016;2022-11-24T11:49:03;16.00;;;7.50;;
17032;SDS011;63208;52.178;21.016;2022-11-24T12:05:10;12.10;;;6.90;;
17032;SDS011;63208;52.178;21.016;2022-11-24T12:10:44;16.43;;;7.33;;
17032;SDS011;63208;52.178;21.016;2022-11-24T12:13:22;14.27;;;7.20;;
17032;SDS011;63208;52.178;21.016;2022-11-24T12:16:19;13.70;;;7.00;;
17032;SDS011;63208;52.178;21.016;2022-11-24T12:18:57;16.20;;;7.77;;
17032;SDS011;63208;52.178;21.016;2022-11-24T12:21:34;16.73;;;7.57;;
17032;SDS011;63208;52.178;21.016;2022-11-24T12:24:09;13.80;;;6.73;;
17032;SDS011;63208;52.178;21.016;2022-11-24T12:26:44;15.37;;;7.47;;
17032;SDS011;63208;52.178;21.016;2022-11-24T12:29:25;15.33;;;7.20;;
17032;SDS011;63208;52.178;21.016;2022-11-24T12:32:10;14.43;;;6.80;;
17032;SDS011;63208;52.178;21.016;2022-11-24T12:34:50;13.70;;;6.83;;
17032;SDS011;63208;52.178;21.016;2022-11-24T12:40:16;17.17;;;7.50;;
17032;SDS011;63208;52.178;21.016;2022-11-24T12:43:06;14.73;;;7.33;;
17032;SDS011;63208;52.178;21.016;2022-11-24T12:45:40;15.20;;;7.53;;
17032;SDS011;63208;52.178;21.016;2022-11-24T12:48:15;12.30;;;6.83;;
17032;SDS011;63208;52.178;21.016;2022-11-24T12:50:50;17.13;;;7.70;;
17032;SDS011;63208;52.178;21.016;2022-11-24T12:53:22;13.93;;;7.43;;
17032;SDS011;63208;52.178;21.016;2022-11-24T12:55:52;15.03;;;7.57;;
17032;SDS011;63208;52.178;21.016;2022-11-24T12:58:24;13.80;;;6.27;;
17032;SDS011;63208;52.178;21.016;2022-11-24T13:01:05;13.00;;;7.37;;
17032;SDS011;63208;52.178;21.016;2022-11-24T13:03:45;13.60;;;6.07;;
17032;SDS011;63208;52.178;21.016;2022-11-24T13:06:19;14.33;;;6.33;;
17032;SDS011;63208;52.178;21.016;2022-11-24T13:08:53;14.77;;;6.33;;
17032;SDS011;63208;52.178;21.016;2022-11-24T13:11:24;13.30;;;6.70;;
17032;SDS011;63208;52.178;21.016;2022-11-24T13:14:01;15.30;;;7.17;;
17032;SDS011;63208;52.178;21.016;2022-11-24T13:16:31;18.67;;;6.83;;
17032;SDS011;63208;52.178;21.016;2022-11-24T13:18:59;14.03;;;6.83;;
17032;SDS011;63208;52.178;21.016;2022-11-24T13:24:50;17.23;;;7.80;;
17032;SDS011;63208;52.178;21.016;2022-11-24T13:27:52;18.40;;;8.03;;
17032;SDS011;63208;52.178;21.016;2022-11-24T13:33:29;17.43;;;8.07;;
17032;SDS011;63208;52.178;21.016;2022-11-24T13:38:56;14.90;;;7.03;;
17032;SDS011;63208;52.178;21.016;2022-11-24T13:44:49;17.00;;;7.50;;
17032;SDS011;63208;52.178;21.016;2022-11-24T13:47:41;16.30;;;7.23;;
17032;SDS011;63208;52.178;21.016;2022-11-24T13:50:20;14.33;;;7.40;;
17032;SDS011;63208;52.178;21.016;2022-11-24T13:52:50;14.47;;;7.50;;
17032;SDS011;63208;52.178;21.016;2022-11-24T13:55:26;15.13;;;7.43;;
17032;SDS011;63208;52.178;21.016;2022-11-24T13:57:58;21.93;;;8.23;;
17032;SDS011;63208;52.178;21.016;2022-11-24T14:00:57;17.70;;;8.03;;
17032;SDS011;63208;52.178;21.016;2022-11-24T14:03:46;21.07;;;9.17;;
17032;SDS011;63208;52.178;21.016;2022-11-24T14:06:26;20.33;;;9.03;;
17032;SDS011;63208;52.178;21.016;2022-11-24T14:08:55;21.20;;;9.20;;
17032;SDS011;63208;52.178;21.016;2022-11-24T14:11:25;15.03;;;8.23;;
17032;SDS011;63208;52.178;21.016;2022-11-24T14:13:54;22.50;;;10.30;;
17032;SDS011;63208;52.178;21.016;2022-11-24T14:16:22;23.60;;;9.43;;
17032;SDS011;63208;52.178;21.016;2022-11-24T14:18:50;22.07;;;10.10;;
17032;SDS011;63208;52.178;21.016;2022-11-24T14:21:24;21.57;;;9.57;;
17032;SDS011;63208;52.178;21.016;2022-11-24T14:23:54;21.83;;;9.17;;
17032;SDS011;63208;52.178;21.016;2022-11-24T14:26:24;23.20;;;9.43;;
17032;SDS011;63208;52.178;21.016;2022-11-24T14:29:01;19.63;;;7.83;;
17032;SDS011;63208;52.178;21.016;2022-11-24T14:31:32;15.83;;;7.67;;
17032;SDS011;63208;52.178;21.016;2022-11-24T14:34:12;21.63;;;8.37;;
17032;SDS011;63208;52.178;21.016;2022-11-24T14:36:41;15.77;;;7.33;;
17032;SDS011;63208;52.178;21.016;2022-11-24T14:39:12;17.50;;;7.73;;
17032;SDS011;63208;52.178;21.016;2022-11-24T14:41:41;14.13;;;7.63;;
17032;SDS011;63208;52.178;21.016;2022-11-24T14:44:16;18.63;;;6.77;;
17032;SDS011;63208;52.178;21.016;2022-11-24T14:46:47;16.40;;;7.90;;
17032;SDS011;63208;52.178;21.016;2022-11-24T14:49:18;17.20;;;7.63;;
17032;SDS011;63208;52.178;21.016;2022-11-24T14:51:49;19.60;;;8.53;;
17032;SDS011;63208;52.178;21.016;2022-11-24T15:00:17;21.30;;;10.43;;
17032;SDS011;63208;52.178;21.016;2022-11-24T15:05:49;25.80;;;11.10;;
17032;SDS011;63208;52.178;21.016;2022-11-24T15:08:19;27.90;;;10.90;;
17032;SDS011;63208;52.178;21.016;2022-11-24T15:11:02;26.07;;;11.00;;
17032;SDS011;63208;52.178;21.016;2022-11-24T15:13:32;26.97;;;10.80;;
17032;SDS011;63208;52.178;21.016;2022-11-24T15:16:02;30.07;;;10.67;;
17032;SDS011;63208;52.178;21.016;2022-11-24T15:18:36;28.90;;;10.27;;
17032;SDS011;63208;52.178;21.016;2022-11-24T15:21:07;25.20;;;10.97;;
17032;SDS011;63208;52.178;21.016;2022-11-24T15:23:35;22.43;;;11.67;;
17032;SDS011;63208;52.178;21.016;2022-11-24T15:28:56;22.23;;;10.40;;
17032;SDS011;63208;52.178;21.016;2022-11-24T15:31:23;27.73;;;11.33;;
17032;SDS011;63208;52.178;21.016;2022-11-24T15:33:52;31.93;;;11.87;;
17032;SDS011;63208;52.178;21.016;2022-11-24T15:36:19;22.23;;;10.13;;
17032;SDS011;63208;52.178;21.016;2022-11-24T15:38:46;27.17;;;10.97;;
17032;SDS011;63208;52.178;21.016;2022-11-24T15:41:15;28.07;;;11.97;;
17032;SDS011;63208;52.178;21.016;2022-11-24T15:43:45;25.67;;;11.87;;
17032;SDS011;63208;52.178;21.016;2022-11-24T15:46:12;30.00;;;12.07;;
17032;SDS011;63208;52.178;21.016;2022-11-24T15:48:40;26.30;;;11.33;;
17032;SDS011;63208;52.178;21.016;2022-11-24T15:51:10;27.17;;;11.43;;
17032;SDS011;63208;52.178;21.016;2022-11-24T15:53:39;29.03;;;11.30;;
17032;SDS011;63208;52.178;21.016;2022-11-24T15:56:11;27.57;;;11.80;;
17032;SDS011;63208;52.178;21.016;2022-11-24T15:58:41;29.03;;;11.73;;
17032;SDS011;63208;52.178;21.016;2022-11-24T16:01:08;30.20;;;11.87;;
17032;SDS011;63208;52.178;21.016;2022-11-24T16:10:23;25.10;;;11.00;;
17032;SDS011;63208;52.178;21.016;2022-11-24T16:12:52;29.40;;;11.70;;
17032;SDS011;63208;52.178;21.016;2022-11-24T16:15:20;27.37;;;12.83;;
17032;SDS011;63208;52.178;21.016;2022-11-24T16:17:47;27.20;;;11.23;;
17032;SDS011;63208;52.178;21.016;2022-11-24T16:20:14;24.07;;;10.93;;
17032;SDS011;63208;52.178;21.016;2022-11-24T16:22:42;26.77;;;10.87;;
17032;SDS011;63208;52.178;21.016;2022-11-24T16:25:09;30.67;;;11.83;;
17032;SDS011;63208;52.178;21.016;2022-11-24T16:27:38;26.30;;;10.87;;
17032;SDS011;63208;52.178;21.016;2022-11-24T16:30:06;23.77;;;10.83;;
17032;SDS011;63208;52.178;21.016;2022-11-24T16:32:34;21.50;;;10.93;;
17032;SDS011;63208;52.178;21.016;2022-11-24T16:35:01;27.97;;;12.10;;
17032;SDS011;63208;52.178;21.016;2022-11-24T16:37:29;24.67;;;10.33;;
17032;SDS011;63208;52.178;21.016;2022-11-24T16:39:56;27.53;;;10.87;;
17032;SDS011;63208;52.178;21.016;2022-11-24T16:42:25;26.17;;;12.03;;
17032;SDS011;63208;52.178;21.016;2022-11-24T16:44:54;26.17;;;11.20;;
17032;SDS011;63208;52.178;21.016;2022-11-24T16:47:23;20.93;;;10.00;;
17032;SDS011;63208;52.178;21.016;2022-11-24T16:49:51;23.77;;;10.80;;
17032;SDS011;63208;52.178;21.016;2022-11-24T16:52:18;22.37;;;9.80;;
17032;SDS011;63208;52.178;21.016;2022-11-24T16:54:46;19.63;;;9.40;;
17032;SDS011;63208;52.178;21.016;2022-11-24T16:57:13;21.37;;;9.33;;
17032;SDS011;63208;52.178;21.016;2022-11-24T16:59:40;23.03;;;9.07;;
17032;SDS011;63208;52.178;21.016;2022-11-24T17:02:11;24.83;;;10.80;;
17032;SDS011;63208;52.178;21.016;2022-11-24T17:04:51;20.23;;;9.20;;
17032;SDS011;63208;52.178;21.016;2022-11-24T17:07:35;23.67;;;10.40;;
17032;SDS011;63208;52.178;21.016;2022-11-24T17:10:03;19.97;;;9.77;;
17032;SDS011;63208;52.178;21.016;2022-11-24T17:12:33;26.30;;;10.63;;
17032;SDS011;63208;52.178;21.016;2022-11-24T17:15:01;19.63;;;10.23;;
17032;SDS011;63208;52.178;21.016;2022-11-24T17:17:38;20.83;;;9.60;;
17032;SDS011;63208;52.178;21.016;2022-11-24T17:20:31;21.33;;;10.03;;
17032;SDS011;63208;52.178;21.016;2022-11-24T17:23:09;22.93;;;9.70;;
17032;SDS011;63208;52.178;21.016;2022-11-24T17:25:36;19.27;;;9.77;;
17032;SDS011;63208;52.178;21.016;2022-11-24T17:28:09;23.40;;;10.07;;
17032;SDS011;63208;52.178;21.016;2022-11-24T17:33:32;23.17;;;9.53;;
17032;SDS011;63208;52.178;21.016;2022-11-24T17:36:00;23.93;;;9.33;;
17032;SDS011;63208;52.178;21.016;2022-11-24T17:38:27;23.70;;;10.83;;
17032;SDS011;63208;52.178;21.016;2022-11-24T17:40:55;23.97;;;10.23;;
17032;SDS011;63208;52.178;21.016;2022-11-24T17:43:38;26.13;;;10.30;;
17032;SDS011;63208;52.178;21.016;2022-11-24T17:46:05;23.93;;;10.67;;
17032;SDS011;63208;52.178;21.016;2022-11-24T17:51:40;23.87;;;10.40;;
17032;SDS011;63208;52.178;21.016;2022-11-24T17:54:20;24.90;;;10.40;;
17032;SDS011;63208;52.178;21.016;2022-11-24T17:56:48;24.33;;;11.43;;
17032;SDS011;63208;52.178;21.016;2022-11-24T17:59:16;24.43;;;10.17;;
17032;SDS011;63208;52.178;21.016;2022-11-24T18:04:44;28.33;;;11.30;;
17032;SDS011;63208;52.178;21.016;2022-11-24T18:07:17;30.90;;;11.70;;
17032;SDS011;63208;52.178;21.016;2022-11-24T18:15:59;30.47;;;12.17;;
17032;SDS011;63208;52.178;21.016;2022-11-24T18:18:48;31.13;;;12.20;;
17032;SDS011;63208;52.178;21.016;2022-11-24T18:25:12;33.20;;;12.33;;
17032;SDS011;63208;52.178;21.016;2022-11-24T18:28:03;39.43;;;13.40;;
17032;SDS011;63208;52.178;21.016;2022-11-24T18:30:36;33.83;;;12.83;;
17032;SDS011;63208;52.178;21.016;2022-11-24T18:36:16;34.00;;;11.27;;
17032;SDS011;63208;52.178;21.016;2022-11-24T18:39:02;30.63;;;10.87;;
17032;SDS011;63208;52.178;21.016;2022-11-24T18:41:31;28.70;;;10.60;;
17032;SDS011;63208;52.178;21.016;2022-11-24T18:44:01;24.47;;;9.53;;
17032;SDS011;63208;52.178;21.016;2022-11-24T18:46:31;25.43;;;8.50;;
17032;SDS011;63208;52.178;21.016;2022-11-24T18:49:06;28.73;;;9.80;;
17032;SDS011;63208;52.178;21.016;2022-11-24T18:51:38;27.23;;;10.83;;
17032;SDS011;63208;52.178;21.016;2022-11-24T18:54:07;29.03;;;10.17;;
17032;SDS011;63208;52.178;21.016;2022-11-24T18:56:38;29.53;;;11.67;;
17032;SDS011;63208;52.178;21.016;2022-11-24T18:59:08;31.30;;;11.57;;
17032;SDS011;63208;52.178;21.016;2022-11-24T19:01:39;33.93;;;12.93;;
17032;SDS011;63208;52.178;21.016;2022-11-24T19:04:07;41.30;;;14.90;;
17032;SDS011;63208;52.178;21.016;2022-11-24T19:06:48;33.77;;;13.00;;
17032;SDS011;63208;52.178;21.016;2022-11-24T19:40:23;23.47;;;9.93;;
17032;SDS011;63208;52.178;21.016;2022-11-24T19:42:51;28.63;;;9.90;;
17032;SDS011;63208;52.178;21.016;2022-11-24T19:45:20;23.70;;;9.13;;
17032;SDS011;63208;52.178;21.016;2022-11-24T19:47:50;32.30;;;11.20;;
17032;SDS011;63208;52.178;21.016;2022-11-24T19:50:18;23.83;;;8.93;;
17032;SDS011;63208;52.178;21.016;2022-11-24T20:02:56;30.47;;;8.77;;
17032;SDS011;63208;52.178;21.016;2022-11-24T20:05:23;15.83;;;6.93;;
17032;SDS011;63208;52.178;21.016;2022-11-24T20:07:50;16.57;;;7.70;;
17032;SDS011;63208;52.178;21.016;2022-11-24T20:10:18;24.00;;;7.73;;
17032;SDS011;63208;52.178;21.016;2022-11-24T20:12:45;26.03;;;7.73;;
17032;SDS011;63208;52.178;21.016;2022-11-24T20:15:16;28.70;;;10.13;;
17032;SDS011;63208;52.178;21.016;2022-11-24T20:17:43;24.07;;;9.10;;
17032;SDS011;63208;52.178;21.016;2022-11-24T20:20:12;35.80;;;12.00;;
17032;SDS011;63208;52.178;21.016;2022-11-24T20:25:34;26.63;;;9.33;;
17032;SDS011;63208;52.178;21.016;2022-11-24T20:28:06;30.20;;;11.20;;
17032;SDS011;63208;52.178;21.016;2022-11-24T20:30:33;30.73;;;10.80;;
17032;SDS011;63208;52.178;21.016;2022-11-24T20:33:00;31.00;;;10.40;;
17032;SDS011;63208;52.178;21.016;2022-11-24T20:35:29;29.63;;;9.73;;
17032;SDS011;63208;52.178;21.016;2022-11-24T20:37:58;28.47;;;10.10;;
17032;SDS011;63208;52.178;21.016;2022-11-24T20:40:26;29.80;;;9.50;;
17032;SDS011;63208;52.178;21.016;2022-11-24T20:42:55;26.93;;;10.67;;
17032;SDS011;63208;52.178;21.016;2022-11-24T20:45:25;27.47;;;9.50;;
17032;SDS011;63208;52.178;21.016;2022-11-24T20:47:53;33.73;;;11.23;;
17032;SDS011;63208;52.178;21.016;2022-11-24T20:50:20;26.03;;;9.33;;
17032;SDS011;63208;52.178;21.016;2022-11-24T20:52:49;25.53;;;9.70;;
17032;SDS011;63208;52.178;21.016;2022-11-24T20:55:16;37.83;;;11.03;;
17032;SDS011;63208;52.178;21.016;2022-11-24T20:57:48;29.37;;;10.67;;
17032;SDS011;63208;52.178;21.016;2022-11-24T21:00:16;31.00;;;9.83;;
17032;SDS011;63208;52.178;21.016;2022-11-24T21:02:47;27.57;;;8.83;;
17032;SDS011;63208;52.178;21.016;2022-11-24T21:05:15;26.00;;;9.67;;
17032;SDS011;63208;52.178;21.016;2022-11-24T21:24:33;31.13;;;9.73;;
17032;SDS011;63208;52.178;21.016;2022-11-24T21:27:00;22.93;;;8.37;;
17032;SDS011;63208;52.178;21.016;2022-11-24T21:29:28;28.33;;;9.80;;
17032;SDS011;63208;52.178;21.016;2022-11-24T21:31:55;33.10;;;9.27;;
17032;SDS011;63208;52.178;21.016;2022-11-24T21:34:23;26.33;;;8.93;;
17032;SDS011;63208;52.178;21.016;2022-11-24T21:36:50;23.57;;;9.23;;
17032;SDS011;63208;52.178;21.016;2022-11-24T21:39:17;26.60;;;8.73;;
17032;SDS011;63208;52.178;21.016;2022-11-24T21:41:46;28.93;;;8.67;;
17032;SDS011;63208;52.178;21.016;2022-11-24T21:44:14;27.20;;;9.20;;
17032;SDS011;63208;52.178;21.016;2022-11-24T21:46:41;27.30;;;9.00;;
17032;SDS011;63208;52.178;21.016;2022-11-24T21:49:08;23.27;;;9.00;;
17032;SDS011;63208;52.178;21.016;2022-11-24T21:51:35;27.90;;;10.07;;
17032;SDS011;63208;52.178;21.016;2022-11-24T21:54:06;30.63;;;9.17;;
17032;SDS011;63208;52.178;21.016;2022-11-24T21:56:34;33.10;;;11.10;;
17032;SDS011;63208;52.178;21.016;2022-11-24T21:59:04;28.33;;;8.67;;
17032;SDS011;63208;52.178;21.016;2022-11-24T22:01:32;22.03;;;8.30;;
17032;SDS011;63208;52.178;21.016;2022-11-24T22:03:59;29.33;;;9.07;;
17032;SDS011;63208;52.178;21.016;2022-11-24T22:06:27;28.00;;;9.20;;